Time;durP1;ratioP1;P1;durP2;ratioP2;P2;SDS_P1;SDS_P2;PMS_P1;PMS_P2;Temp;Humidity;BMP_temperature;BMP_pressure;BME280_temperature;BME280_humidity;BME280_pressure;Samples;Min_cycle;Max_cycle;Signal;HPM_P1;HPM_P2
2021/06/26 00:01:06;;;;;;;23.48;5.68;;;;;;;26.06;55.15;93763.00;6088636;23;20010;-81
2021/06/26 00:03:32;;;;;;;29.88;6.90;;;;;;;25.92;55.15;93756.78;6112653;23;20097;-81
2021/06/26 00:05:58;;;;;;;24.38;5.65;;;;;;;25.98;55.45;93761.44;6115552;23;20014;-81
2021/06/26 00:08:26;;;;;;;30.48;6.75;;;;;;;25.92;55.00;93768.41;6110494;23;20065;-81
2021/06/26 00:10:53;;;;;;;31.10;6.95;;;;;;;25.92;55.15;93773.03;6083387;23;20265;-80
2021/06/26 00:13:19;;;;;;;29.83;7.38;;;;;;;26.02;54.57;93773.06;6119266;23;20010;-81
2021/06/26 00:15:46;;;;;;;34.75;7.35;;;;;;;26.12;54.79;93771.50;6088373;23;20037;-80
2021/06/26 00:18:12;;;;;;;38.20;6.60;;;;;;;26.15;54.52;93776.91;6085473;23;20017;-81
2021/06/26 00:20:37;;;;;;;33.13;6.78;;;;;;;26.13;54.60;93779.25;6108867;23;20402;-80
2021/06/26 00:23:03;;;;;;;31.20;6.43;;;;;;;25.98;55.46;93772.28;6110388;23;20319;-81
2021/06/26 00:25:29;;;;;;;30.63;5.55;;;;;;;25.94;55.58;93782.34;6084102;23;20073;-81
2021/06/26 00:27:54;;;;;;;24.25;6.32;;;;;;;25.95;56.12;93783.88;6111859;23;20017;-80
2021/06/26 00:30:20;;;;;;;32.47;8.00;;;;;;;25.83;56.47;93784.25;6111124;23;20046;-80
2021/06/26 00:32:46;;;;;;;31.13;7.65;;;;;;;25.83;56.42;93776.91;6109119;23;20668;-82
2021/06/26 00:35:12;;;;;;;29.60;7.03;;;;;;;25.91;56.84;93774.19;6111316;23;20018;-81
2021/06/26 00:37:38;;;;;;;28.77;6.22;;;;;;;25.97;56.35;93776.16;6118395;23;20006;-81
2021/06/26 00:40:05;;;;;;;29.17;6.82;;;;;;;25.91;57.02;93769.56;6118219;23;20058;-81
2021/06/26 00:42:35;;;;;;;25.48;6.60;;;;;;;25.84;57.19;93772.28;6085031;23;20460;-81
2021/06/26 00:45:01;;;;;;;37.30;6.30;;;;;;;25.77;57.47;93772.25;6112860;23;20365;-81
2021/06/26 00:47:27;;;;;;;22.70;5.43;;;;;;;25.65;58.00;93778.81;6111540;23;20018;-80
2021/06/26 00:49:52;;;;;;;23.55;5.93;;;;;;;25.64;57.72;93773.78;6083128;23;20728;-81
2021/06/26 00:52:18;;;;;;;25.70;6.05;;;;;;;25.38;58.13;93770.19;6120318;23;20053;-81
2021/06/26 00:54:44;;;;;;;25.33;6.70;;;;;;;25.59;57.48;93776.84;6112564;23;20013;-80
2021/06/26 00:57:09;;;;;;;22.95;6.05;;;;;;;25.62;56.90;93763.34;6085400;23;20650;-82
2021/06/26 00:59:35;;;;;;;31.08;6.25;;;;;;;25.46;57.58;93758.22;6110751;23;20049;-81
2021/06/26 01:02:00;;;;;;;24.35;6.90;;;;;;;25.59;56.77;93758.69;6117425;23;20033;-82
2021/06/26 01:04:26;;;;;;;19.40;5.57;;;;;;;25.49;56.99;93755.94;6118970;23;20009;-81
2021/06/26 01:06:51;;;;;;;29.27;7.88;;;;;;;25.41;57.13;93742.38;6122948;23;20409;-81
2021/06/26 01:09:17;;;;;;;26.42;6.40;;;;;;;25.35;57.52;93749.34;6111795;23;20026;-81
2021/06/26 01:11:42;;;;;;;24.50;7.00;;;;;;;25.25;58.10;93744.66;6085104;23;20461;-81
2021/06/26 01:14:08;;;;;;;32.78;6.95;;;;;;;25.07;58.64;93734.97;6084457;23;20061;-81
2021/06/26 01:16:35;;;;;;;22.48;5.88;;;;;;;25.16;58.44;93740.78;6110325;23;20021;-80
2021/06/26 01:19:00;;;;;;;23.95;6.88;;;;;;;25.20;57.48;93731.50;6088683;23;20073;-80
2021/06/26 01:21:26;;;;;;;23.38;6.80;;;;;;;24.98;57.76;93724.47;6112371;23;20026;-80
2021/06/26 01:23:53;;;;;;;26.88;6.53;;;;;;;25.00;57.66;93708.66;6112998;23;20516;-80
2021/06/26 01:26:21;;;;;;;26.27;6.93;;;;;;;25.07;57.88;93716.78;6115619;23;20014;-80
2021/06/26 01:28:46;;;;;;;30.00;7.95;;;;;;;24.92;58.77;93707.09;6110734;23;20345;-81
2021/06/26 01:31:12;;;;;;;22.38;6.35;;;;;;;24.90;59.13;93712.09;6110748;23;20021;-80
2021/06/26 01:33:37;;;;;;;23.95;5.97;;;;;;;24.89;58.80;93713.25;6087612;23;20468;-81
2021/06/26 01:36:03;;;;;;;38.50;8.63;;;;;;;24.88;59.04;93717.09;6112090;23;20105;-81
2021/06/26 01:38:29;;;;;;;27.30;8.07;;;;;;;24.91;59.34;93733.34;6108776;23;20025;-81
2021/06/26 01:40:54;;;;;;;29.55;9.80;;;;;;;24.81;59.47;93725.16;6119393;23;20013;-81
2021/06/26 01:43:19;;;;;;;28.67;6.82;;;;;;;24.84;59.98;93737.91;6110511;23;20017;-81
2021/06/26 01:45:45;;;;;;;29.85;8.38;;;;;;;24.91;61.03;93746.09;6124654;23;20422;-82
2021/06/26 01:48:10;;;;;;;29.35;8.63;;;;;;;24.86;62.44;93754.53;6112414;23;20048;-82
2021/06/26 01:50:36;;;;;;;29.42;7.45;;;;;;;24.72;63.61;93752.53;6112758;23;20405;-81
2021/06/26 01:53:02;;;;;;;31.40;9.23;;;;;;;24.64;64.41;93760.97;6085749;23;20006;-81
2021/06/26 01:55:28;;;;;;;24.63;8.82;;;;;;;24.65;64.78;93762.50;6110365;23;20089;-81
2021/06/26 01:57:54;;;;;;;39.13;9.73;;;;;;;24.57;64.88;93770.59;6115714;23;20029;-82
2021/06/26 02:00:21;;;;;;;32.53;8.25;;;;;;;24.65;64.84;93767.91;6114374;23;20024;-81
2021/06/26 02:02:47;;;;;;;22.70;7.88;;;;;;;24.66;64.75;93769.47;6084055;23;20093;-81
2021/06/26 02:05:16;;;;;;;43.35;11.45;;;;;;;24.53;65.01;93774.44;6069795;23;20459;-82
2021/06/26 02:07:42;;;;;;;39.85;11.82;;;;;;;24.57;65.54;93783.31;6110976;23;20010;-82
2021/06/26 02:10:08;;;;;;;31.08;10.57;;;;;;;24.45;66.11;93784.41;6116619;23;20269;-83
2021/06/26 02:12:34;;;;;;;35.92;10.27;;;;;;;24.41;66.11;93780.91;6110723;23;20033;-82
2021/06/26 02:14:59;;;;;;;28.27;9.75;;;;;;;24.26;66.73;93781.94;6086689;23;20029;-80
2021/06/26 02:17:25;;;;;;;33.33;8.20;;;;;;;24.22;66.55;93775.75;6117110;23;20353;-82
2021/06/26 02:19:50;;;;;;;32.05;8.82;;;;;;;24.21;67.09;93782.28;6086887;23;20014;-82
2021/06/26 02:22:17;;;;;;;29.95;9.23;;;;;;;24.03;67.94;93778.66;6119492;23;20441;-82
2021/06/26 02:24:43;;;;;;;27.05;10.52;;;;;;;24.08;67.54;93781.78;6122423;23;20013;-81
2021/06/26 02:27:08;;;;;;;31.55;8.88;;;;;;;24.23;66.72;93774.59;6115036;23;20014;-80
2021/06/26 02:29:34;;;;;;;30.98;9.60;;;;;;;24.03;67.52;93781.34;6085878;23;20441;-80
2021/06/26 02:31:59;;;;;;;32.83;9.23;;;;;;;23.84;68.00;93781.56;6118430;23;20357;-81
2021/06/26 02:34:25;;;;;;;36.10;9.60;;;;;;;23.84;68.20;93768.88;6112906;23;20002;-82
2021/06/26 02:36:51;;;;;;;25.27;8.10;;;;;;;23.75;68.18;93776.47;6114290;23;20329;-82
2021/06/26 02:39:17;;;;;;;24.30;8.55;;;;;;;23.65;68.54;93766.38;6111352;23;20131;-81
2021/06/26 02:41:42;;;;;;;35.67;9.38;;;;;;;23.66;68.46;93752.50;6112482;23;20389;-81
2021/06/26 02:44:08;;;;;;;26.98;8.65;;;;;;;23.64;67.77;93741.31;6084780;23;20065;-88
2021/06/26 02:46:34;;;;;;;27.42;8.38;;;;;;;23.79;67.07;93750.31;6084389;23;20081;-84
2021/06/26 02:48:59;;;;;;;34.88;7.85;;;;;;;23.81;66.71;93750.69;6122925;23;20008;-84
2021/06/26 02:51:25;;;;;;;34.78;8.75;;;;;;;23.79;67.32;93749.53;6112197;23;20081;-83
2021/06/26 02:53:50;;;;;;;30.58;8.70;;;;;;;23.72;67.66;93747.53;6109147;23;20017;-83
2021/06/26 02:56:16;;;;;;;25.65;7.28;;;;;;;23.74;67.78;93746.03;6109089;23;20022;-83
2021/06/26 02:58:41;;;;;;;21.35;7.70;;;;;;;23.60;67.62;93727.00;6111030;23;20448;-84
2021/06/26 03:01:07;;;;;;;26.38;7.88;;;;;;;23.57;68.27;93738.53;6112186;23;20269;-81
2021/06/26 03:03:32;;;;;;;26.33;8.88;;;;;;;23.54;68.10;93731.19;6087387;23;20100;-82
2021/06/26 03:05:58;;;;;;;29.33;9.65;;;;;;;23.28;69.36;93745.53;6085299;23;20421;-81
2021/06/26 03:08:23;;;;;;;34.50;9.38;;;;;;;23.27;69.46;93740.50;6117099;23;20126;-81
2021/06/26 03:10:49;;;;;;;40.28;9.40;;;;;;;23.31;69.01;93730.56;6119268;23;20029;-81
2021/06/26 03:13:15;;;;;;;33.55;8.45;;;;;;;23.33;68.87;93739.03;6112360;23;20007;-82
2021/06/26 03:15:41;;;;;;;36.05;8.93;;;;;;;23.25;68.86;93743.59;6086913;23;20396;-82
2021/06/26 03:18:07;;;;;;;26.67;7.32;;;;;;;23.36;68.49;93753.72;6111303;23;20374;-82
2021/06/26 03:20:32;;;;;;;27.30;8.13;;;;;;;23.45;67.69;93746.13;6109859;23;20416;-81
2021/06/26 03:22:58;;;;;;;36.03;8.45;;;;;;;23.46;68.17;93751.13;6112523;23;20021;-83
2021/06/26 03:25:23;;;;;;;31.85;10.20;;;;;;;23.49;68.01;93739.63;6086391;23;20002;-82
2021/06/26 03:27:49;;;;;;;30.20;7.32;;;;;;;23.33;68.56;93750.59;6114186;23;20033;-82
2021/06/26 03:30:15;;;;;;;31.98;7.90;;;;;;;23.32;68.65;93749.03;6084837;23;20022;-82
2021/06/26 03:32:40;;;;;;;32.83;8.65;;;;;;;23.47;67.45;93739.22;6109831;23;20366;-82
2021/06/26 03:35:06;;;;;;;27.63;6.47;;;;;;;23.76;65.96;93729.44;6107684;23;20022;-82
2021/06/26 03:37:32;;;;;;;24.92;7.72;;;;;;;24.02;65.14;93742.00;6086242;23;20057;-82
2021/06/26 03:39:58;;;;;;;29.50;7.57;;;;;;;24.41;63.15;93745.78;6124069;23;20421;-81
2021/06/26 03:42:23;;;;;;;28.08;7.90;;;;;;;24.89;61.69;93745.69;6085640;23;20017;-82
2021/06/26 03:44:48;;;;;;;26.08;6.25;;;;;;;25.28;59.10;93738.50;6110265;23;20037;-82
2021/06/26 03:47:14;;;;;;;29.58;7.00;;;;;;;25.74;59.21;93738.63;6111546;23;20028;-82
2021/06/26 03:49:39;;;;;;;27.83;7.20;;;;;;;25.97;57.53;93732.03;6119331;23;20063;-82
2021/06/26 03:52:06;;;;;;;34.00;7.90;;;;;;;26.51;54.93;93750.59;6122734;23;19998;-83
2021/06/26 03:54:33;;;;;;;27.70;7.78;;;;;;;27.00;53.98;93759.81;6111945;23;20018;-83
2021/06/26 03:56:58;;;;;;;27.20;6.85;;;;;;;27.40;53.24;93761.19;6113187;23;20033;-82
2021/06/26 03:59:24;;;;;;;29.42;6.78;;;;;;;27.93;51.36;93767.09;6110384;23;20025;-82
2021/06/26 04:01:50;;;;;;;19.27;6.47;;;;;;;28.28;49.96;93776.19;6110929;23;20018;-83
2021/06/26 04:04:15;;;;;;;32.90;7.25;;;;;;;28.72;49.97;93773.50;6111711;23;20024;-82
2021/06/26 04:06:40;;;;;;;20.55;6.60;;;;;;;29.23;48.85;93777.19;6110070;23;20064;-83
2021/06/26 04:09:06;;;;;;;30.48;6.63;;;;;;;29.63;46.96;93786.44;6089091;23;20030;-82
2021/06/26 04:11:32;;;;;;;30.05;6.88;;;;;;;30.10;45.31;93788.13;6109750;23;20029;-82
2021/06/26 04:13:57;;;;;;;34.55;6.93;;;;;;;30.49;44.02;93781.34;6111611;23;20021;-82
2021/06/26 04:16:23;;;;;;;30.77;6.65;;;;;;;30.92;43.16;93792.28;6119631;23;20010;-82
2021/06/26 04:18:48;;;;;;;29.27;5.80;;;;;;;31.31;41.12;93781.41;6112821;23;20001;-82
2021/06/26 04:21:14;;;;;;;25.55;7.05;;;;;;;31.60;42.55;93780.84;6109888;23;20092;-82
2021/06/26 04:23:39;;;;;;;29.15;7.00;;;;;;;31.67;41.64;93781.47;6132630;23;20018;-83
2021/06/26 04:26:05;;;;;;;27.48;6.13;;;;;;;31.62;42.43;93784.69;6112198;23;20061;-82
2021/06/26 04:28:31;;;;;;;30.77;7.22;;;;;;;31.95;41.07;93785.56;6110472;23;20531;-82
2021/06/26 04:30:56;;;;;;;31.02;7.18;;;;;;;31.98;41.05;93783.94;6124078;23;20037;-82
2021/06/26 04:33:22;;;;;;;25.42;6.30;;;;;;;32.31;40.31;93779.28;6108364;23;20029;-84
2021/06/26 04:35:47;;;;;;;30.05;6.55;;;;;;;32.47;40.49;93782.03;6109654;23;20026;-82
2021/06/26 04:38:13;;;;;;;32.72;6.05;;;;;;;32.45;39.69;93773.50;6112032;23;20026;-83
2021/06/26 04:40:38;;;;;;;26.52;6.60;;;;;;;32.37;40.78;93772.09;6119647;23;20318;-83
2021/06/26 04:43:04;;;;;;;32.70;7.40;;;;;;;32.93;39.84;93764.47;6120484;23;20022;-81
2021/06/26 04:45:30;;;;;;;22.65;6.63;;;;;;;33.38;38.53;93778.13;6110421;23;20098;-88
2021/06/26 04:48:00;;;;;;;33.90;7.25;;;;;;;33.51;38.29;93782.44;6110211;23;20100;-87
2021/06/26 04:50:26;;;;;;;37.00;7.25;;;;;;;33.80;37.23;93771.44;6112073;23;20359;-87
2021/06/26 04:52:54;;;;;;;28.40;7.10;;;;;;;33.72;37.80;93789.28;6111847;23;20013;-86
2021/06/26 04:55:20;;;;;;;26.30;6.13;;;;;;;34.01;36.92;93781.00;6117145;23;20009;-85
2021/06/26 04:57:48;;;;;;;29.65;8.18;;;;;;;33.67;36.97;93789.84;6114403;23;20160;-85
2021/06/26 05:00:14;;;;;;;31.30;7.43;;;;;;;33.92;37.69;93784.38;6097138;23;20026;-85
2021/06/26 05:02:39;;;;;;;30.98;7.80;;;;;;;34.30;36.96;93791.88;6115260;23;20724;-88
2021/06/26 05:05:05;;;;;;;29.80;8.23;;;;;;;34.36;37.50;93795.59;6116488;23;20025;-88
2021/06/26 05:07:31;;;;;;;32.38;7.10;;;;;;;34.54;37.25;93795.81;6121135;23;20054;-88
2021/06/26 05:09:56;;;;;;;25.15;8.75;;;;;;;34.35;37.53;93792.09;6113942;23;20429;-87
2021/06/26 05:12:22;;;;;;;23.75;8.45;;;;;;;34.25;37.06;93795.19;6112006;23;20080;-87
2021/06/26 05:14:47;;;;;;;27.67;8.55;;;;;;;34.55;36.28;93794.56;6085536;23;20014;-87
2021/06/26 05:17:13;;;;;;;29.65;7.05;;;;;;;34.87;36.05;93784.56;6111900;23;20026;-85
2021/06/26 05:19:38;;;;;;;29.55;8.75;;;;;;;35.33;35.35;93792.00;6116754;23;20520;-85
2021/06/26 05:22:04;;;;;;;26.60;7.85;;;;;;;35.53;34.76;93788.94;6124812;23;20002;-88
2021/06/26 05:24:29;;;;;;;28.85;8.23;;;;;;;36.05;34.30;93794.44;6082727;23;20033;-87
2021/06/26 05:26:55;;;;;;;31.60;9.07;;;;;;;36.84;32.92;93781.13;6112711;23;20064;-86
2021/06/26 05:29:20;;;;;;;27.75;7.28;;;;;;;37.42;32.12;93777.50;6117603;23;20469;-86
2021/06/26 05:31:46;;;;;;;25.48;7.72;;;;;;;37.99;32.39;93789.53;6111186;23;20018;-85
2021/06/26 05:34:11;;;;;;;26.30;7.82;;;;;;;38.50;30.73;93792.28;6120660;23;20426;-84
2021/06/26 05:36:37;;;;;;;25.35;8.38;;;;;;;38.84;30.29;93786.25;6113428;23;20002;-89
2021/06/26 05:39:04;;;;;;;28.38;7.15;;;;;;;39.05;30.30;93800.28;6110133;23;20017;-87
2021/06/26 05:41:29;;;;;;;25.67;7.47;;;;;;;38.78;29.57;93782.59;6109719;23;20022;-82
2021/06/26 05:43:55;;;;;;;35.55;8.77;;;;;;;37.92;30.58;93796.13;6110591;23;20021;-87
2021/06/26 05:46:20;;;;;;;29.77;9.30;;;;;;;37.39;31.64;93803.97;6112470;23;20068;-88
2021/06/26 05:48:45;;;;;;;29.65;9.32;;;;;;;37.09;31.90;93808.44;6111905;23;20016;-86
2021/06/26 05:51:14;;;;;;;32.50;9.82;;;;;;;36.96;32.89;93805.00;6112470;23;20017;-88
2021/06/26 05:53:40;;;;;;;35.70;9.40;;;;;;;36.73;33.85;93808.34;6112056;23;20628;-87
2021/06/26 05:56:05;;;;;;;29.70;8.68;;;;;;;36.35;34.44;93808.66;6111277;23;20021;-87
2021/06/26 05:58:33;;;;;;;43.70;9.20;;;;;;;35.97;34.93;93814.44;6110381;23;20024;-92
2021/06/26 06:00:59;;;;;;;28.23;7.85;;;;;;;36.34;34.63;93816.16;6115022;23;20086;-88
2021/06/26 06:03:28;;;;;;;37.95;15.20;;;;;;;35.95;34.91;93806.63;6109836;23;20045;-91
2021/06/26 06:05:53;;;;;;;39.95;10.75;;;;;;;35.96;35.08;93802.66;6110422;23;20020;-90
2021/06/26 06:08:19;;;;;;;26.58;10.88;;;;;;;35.45;35.82;93810.41;6110515;23;20475;-85
2021/06/26 06:10:45;;;;;;;32.97;10.70;;;;;;;35.38;35.34;93791.44;6084399;23;20097;-86
2021/06/26 06:13:15;;;;;;;38.70;9.82;;;;;;;35.30;35.35;93792.88;6113910;23;20469;-88
2021/06/26 06:15:42;;;;;;;33.15;9.40;;;;;;;35.44;35.10;93803.38;6112691;23;20030;-88
2021/06/26 06:18:08;;;;;;;33.75;8.38;;;;;;;35.81;34.21;93800.88;6111387;23;20144;-87
2021/06/26 06:20:34;;;;;;;28.85;9.25;;;;;;;35.94;32.83;93796.06;6112452;23;20124;-83
2021/06/26 06:22:59;;;;;;;26.85;7.80;;;;;;;36.23;32.88;93793.78;6113104;23;20500;-85
2021/06/26 06:25:25;;;;;;;31.45;10.18;;;;;;;36.48;32.88;93801.06;6121392;23;19998;-87
2021/06/26 06:27:50;;;;;;;29.45;9.25;;;;;;;36.76;32.05;93804.66;6089774;23;20084;-82
2021/06/26 06:30:19;;;;;;;30.10;7.38;;;;;;;37.26;31.85;93795.88;6113072;23;20677;-86
2021/06/26 06:32:44;;;;;;;25.48;8.38;;;;;;;37.22;31.12;93805.53;6113869;23;20330;-87
2021/06/26 06:35:10;;;;;;;25.08;8.00;;;;;;;37.82;30.86;93802.91;6087024;23;20072;-84
2021/06/26 06:37:38;;;;;;;30.67;9.20;;;;;;;38.29;29.97;93802.31;6086496;23;20093;-86
2021/06/26 06:40:06;;;;;;;28.98;8.70;;;;;;;38.44;29.85;93796.91;6090260;23;20016;-84
2021/06/26 06:42:35;;;;;;;25.67;7.57;;;;;;;38.65;29.34;93801.41;6113604;23;20018;-85
2021/06/26 06:45:03;;;;;;;28.85;8.65;;;;;;;38.74;29.45;93786.78;6112993;23;20131;-84
2021/06/26 06:47:28;;;;;;;29.13;7.85;;;;;;;38.45;29.43;93792.91;6110058;23;20025;-83
2021/06/26 06:49:54;;;;;;;31.45;8.75;;;;;;;38.63;29.46;93798.34;6113217;23;20406;-84
2021/06/26 06:52:19;;;;;;;30.20;8.10;;;;;;;39.07;28.44;93797.78;6119394;23;20013;-83
2021/06/26 06:54:45;;;;;;;23.48;6.90;;;;;;;39.44;28.15;93792.78;6124117;23;20006;-84
2021/06/26 06:57:10;;;;;;;24.58;7.43;;;;;;;39.52;27.52;93789.16;6110785;23;20465;-84
2021/06/26 06:59:35;;;;;;;30.83;8.65;;;;;;;40.04;26.72;93779.28;6111990;23;20473;-84
2021/06/26 07:02:07;;;;;;;27.55;6.93;;;;;;;40.50;27.10;93776.75;6111451;23;20096;-88
2021/06/26 07:04:34;;;;;;;25.23;7.53;;;;;;;40.76;26.69;93776.13;6083922;23;20018;-90
2021/06/26 07:07:02;;;;;;;28.75;7.70;;;;;;;40.86;25.73;93796.91;6114332;23;20002;-90
2021/06/26 07:09:28;;;;;;;28.25;7.22;;;;;;;41.28;25.93;93765.94;6098443;23;20453;-89
2021/06/26 07:11:53;;;;;;;35.63;7.95;;;;;;;42.17;24.55;93789.84;6110851;23;20022;-87
2021/06/26 07:14:19;;;;;;;23.58;7.28;;;;;;;42.13;24.23;93786.50;6104531;23;20508;-89
2021/06/26 07:16:44;;;;;;;41.78;8.43;;;;;;;41.66;24.74;93775.97;6115226;23;20014;-86
2021/06/26 07:19:10;;;;;;;28.25;6.95;;;;;;;41.90;25.04;93759.81;6120226;23;20010;-88
2021/06/26 07:21:35;;;;;;;25.00;7.20;;;;;;;43.20;22.93;93783.94;6089284;23;20010;-87
2021/06/26 07:24:01;;;;;;;25.88;6.93;;;;;;;42.39;23.63;93757.94;6107256;23;20389;-85
2021/06/26 07:26:26;;;;;;;28.98;6.25;;;;;;;42.03;23.27;93768.50;6117975;23;20026;-86
2021/06/26 07:28:51;;;;;;;21.08;6.30;;;;;;;41.72;24.62;93762.91;6083312;23;20120;-86
2021/06/26 07:31:17;;;;;;;31.85;7.03;;;;;;;41.87;24.52;93788.56;6113307;23;19998;-88
2021/06/26 07:33:42;;;;;;;27.33;6.78;;;;;;;42.38;23.28;93796.06;6114662;23;20005;-83
2021/06/26 07:36:08;;;;;;;29.42;7.32;;;;;;;42.89;23.99;93792.38;6110248;23;20041;-81
2021/06/26 07:38:33;;;;;;;26.00;6.00;;;;;;;43.65;22.72;93795.25;6115582;23;20068;-88
2021/06/26 07:40:59;;;;;;;24.25;6.32;;;;;;;43.74;22.22;93797.81;6110089;23;20643;-88
2021/06/26 07:43:27;;;;;;;26.17;6.78;;;;;;;43.50;21.70;93797.47;6083081;23;20437;-86
2021/06/26 07:45:56;;;;;;;22.65;5.70;;;;;;;43.50;22.06;93780.78;6088872;23;20010;-87
2021/06/26 07:48:21;;;;;;;23.10;5.80;;;;;;;44.45;20.80;93792.84;6084777;23;20492;-85
2021/06/26 07:50:51;;;;;;;23.88;6.05;;;;;;;44.38;20.43;93796.88;6111509;23;20073;-87
2021/06/26 07:53:18;;;;;;;29.10;5.05;;;;;;;44.25;20.21;93773.56;6107929;23;20424;-85
2021/06/26 07:55:43;;;;;;;32.58;6.30;;;;;;;44.44;21.09;93780.16;6110904;23;20022;-88
2021/06/26 07:58:08;;;;;;;26.92;7.20;;;;;;;44.91;19.85;93778.34;6089092;23;20426;-88
2021/06/26 08:00:34;;;;;;;24.42;6.53;;;;;;;44.57;20.09;93793.59;6085008;23;20318;-86
2021/06/26 08:02:59;;;;;;;23.70;6.32;;;;;;;44.14;20.55;93804.97;6113953;23;20026;-88
2021/06/26 08:05:25;;;;;;;26.73;6.65;;;;;;;43.92;20.63;93797.38;6114612;23;20026;-86
2021/06/26 08:07:51;;;;;;;25.65;4.97;;;;;;;43.60;18.87;93799.53;6119232;23;20465;-83
2021/06/26 08:10:17;;;;;;;27.63;4.07;;;;;;;43.83;18.33;93794.03;6111340;23;20021;-86
2021/06/26 08:12:45;;;;;;;17.55;3.90;;;;;;;45.03;17.80;93796.56;6123145;23;20325;-88
2021/06/26 08:15:11;;;;;;;23.85;5.18;;;;;;;45.45;18.46;93803.81;6113773;23;20516;-87
2021/06/26 08:17:36;;;;;;;28.40;6.28;;;;;;;45.57;18.52;93796.13;6109298;23;20020;-86
2021/06/26 08:20:03;;;;;;;19.58;5.28;;;;;;;45.54;18.40;93800.72;6115411;23;20018;-88
2021/06/26 08:22:28;;;;;;;18.50;3.95;;;;;;;45.37;18.02;93791.63;6086016;23;20053;-87
2021/06/26 08:24:54;;;;;;;21.50;5.22;;;;;;;44.77;18.06;93796.88;6122954;23;20017;-86
2021/06/26 08:27:19;;;;;;;17.90;4.68;;;;;;;44.19;18.45;93803.44;6112601;23;20109;-87
2021/06/26 08:29:44;;;;;;;15.57;4.72;;;;;;;44.30;17.32;93781.97;6111146;23;20205;-88
2021/06/26 08:32:10;;;;;;;16.25;3.67;;;;;;;44.68;16.86;93794.34;6112401;23;20021;-87
2021/06/26 08:34:36;;;;;;;25.40;4.20;;;;;;;44.75;16.96;93799.41;6112091;23;20109;-90
2021/06/26 08:37:01;;;;;;;16.20;4.03;;;;;;;44.92;16.85;93795.81;6123750;23;20032;-87
2021/06/26 08:39:27;;;;;;;17.67;3.70;;;;;;;45.52;16.76;93792.09;6084044;23;20090;-88
2021/06/26 08:41:52;;;;;;;17.42;3.45;;;;;;;46.30;15.12;93780.44;6113924;23;20081;-86
2021/06/26 08:44:19;;;;;;;25.70;4.80;;;;;;;46.79;15.40;93789.66;6114765;23;20022;-88
2021/06/26 08:46:49;;;;;;;16.80;3.97;;;;;;;45.12;16.46;93768.41;6083359;23;20042;-86
2021/06/26 08:49:16;;;;;;;17.67;3.30;;;;;;;45.21;16.58;93784.84;6108923;23;19998;-86
2021/06/26 08:51:42;;;;;;;13.48;2.63;;;;;;;46.16;15.51;93792.75;6119467;23;20002;-86
2021/06/26 08:54:13;;;;;;;25.80;4.35;;;;;;;46.49;16.54;93788.91;6109263;23;20045;-86
2021/06/26 08:56:42;;;;;;;18.30;3.95;;;;;;;46.70;15.97;93778.81;6112441;23;20024;-86
2021/06/26 08:59:08;;;;;;;20.42;3.45;;;;;;;47.62;15.72;93787.22;6081585;23;20014;-86
2021/06/26 09:01:38;;;;;;;20.25;3.65;;;;;;;48.04;14.98;93794.81;6071956;23;20322;-86
2021/06/26 09:04:13;;;;;;;17.42;3.80;;;;;;;47.80;14.22;93792.06;6114644;23;20060;-85
2021/06/26 09:06:52;;;;;;;19.58;6.38;;;;;;;47.08;14.35;93785.31;6084223;23;20022;-84
2021/06/26 09:09:32;;;;;;;15.55;4.88;;;;;;;47.04;14.85;93790.44;6095381;23;20104;-84
2021/06/26 09:12:07;;;;;;;16.80;4.07;;;;;;;47.43;15.00;93786.44;6139233;23;20017;-85
2021/06/26 09:14:34;;;;;;;20.65;3.58;;;;;;;47.08;14.86;93779.72;6112064;23;20016;-84
2021/06/26 09:17:00;;;;;;;30.65;5.15;;;;;;;46.69;15.09;93776.56;6140085;23;20713;-86
2021/06/26 09:19:30;;;;;;;21.13;4.85;;;;;;;46.43;14.90;93772.19;6149600;23;20040;-86
2021/06/26 09:22:02;;;;;;;22.75;3.88;;;;;;;45.28;16.03;93770.38;6152336;23;20016;-86
2021/06/26 09:24:43;;;;;;;19.75;4.55;;;;;;;44.55;16.86;93768.25;6140960;23;20032;-84
2021/06/26 09:27:10;;;;;;;16.42;4.40;;;;;;;44.03;17.23;93772.31;6113502;23;20392;-85
2021/06/26 09:29:36;;;;;;;18.35;3.95;;;;;;;43.71;17.64;93762.63;6138480;23;20100;-84
2021/06/26 09:32:06;;;;;;;12.95;3.75;;;;;;;42.62;18.55;93752.03;6145299;23;20097;-87
2021/06/26 09:34:43;;;;;;;23.92;4.65;;;;;;;42.52;18.81;93761.06;6139541;23;20013;-85
2021/06/26 09:37:17;;;;;;;30.25;5.70;;;;;;;41.95;19.39;93739.66;6152248;23;20012;-85
2021/06/26 09:39:44;;;;;;;28.10;4.53;;;;;;;41.86;19.84;93746.16;6140144;23;20018;-85
2021/06/26 09:42:31;;;;;;;19.70;4.90;;;;;;;41.89;19.29;93738.84;6139809;23;20021;-86
2021/06/26 09:44:57;;;;;;;32.15;4.60;;;;;;;41.65;19.33;93752.22;6140655;23;20018;-86
2021/06/26 09:47:34;;;;;;;25.25;4.93;;;;;;;41.24;20.27;93744.00;6137593;23;20025;-85
2021/06/26 09:50:11;;;;;;;23.15;4.88;;;;;;;40.96;20.49;93740.09;6143107;23;20006;-85
2021/06/26 09:52:47;;;;;;;24.52;3.42;;;;;;;40.31;20.67;93747.78;6144280;23;20051;-84
2021/06/26 09:55:20;;;;;;;25.30;4.15;;;;;;;39.84;20.70;93743.97;6148870;23;20021;-86
2021/06/26 09:57:47;;;;;;;19.58;3.92;;;;;;;39.55;22.49;93740.41;6154679;23;20415;-84
2021/06/26 10:00:16;;;;;;;21.02;4.03;;;;;;;39.13;21.44;93740.63;6141792;23;20388;-84
2021/06/26 10:02:43;;;;;;;18.73;4.55;;;;;;;39.14;21.94;93740.16;6113401;23;20036;-86
2021/06/26 10:05:09;;;;;;;28.10;4.50;;;;;;;38.94;21.42;93732.50;6147609;23;20018;-85
2021/06/26 10:07:39;;;;;;;17.52;4.60;;;;;;;38.94;22.10;93731.72;6146392;23;20017;-87
2021/06/26 10:10:15;;;;;;;19.52;4.13;;;;;;;38.89;22.32;93732.38;6117033;23;20013;-87
2021/06/26 10:12:43;;;;;;;27.33;4.20;;;;;;;38.96;20.78;93716.19;6087103;23;20022;-86
2021/06/26 10:15:11;;;;;;;22.23;4.78;;;;;;;38.85;20.92;93718.72;6083057;23;20020;-86
2021/06/26 10:17:37;;;;;;;21.88;4.55;;;;;;;38.79;21.86;93706.78;6078992;23;20725;-86
2021/06/26 10:20:06;;;;;;;23.45;3.95;;;;;;;38.81;22.46;93715.34;6106949;23;20081;-86
2021/06/26 10:22:36;;;;;;;24.75;4.18;;;;;;;38.62;23.50;93702.91;6073485;23;20520;-88
2021/06/26 10:25:03;;;;;;;18.75;4.13;;;;;;;38.50;22.22;93720.50;6115785;23;20049;-88
2021/06/26 10:27:28;;;;;;;25.98;4.45;;;;;;;38.31;23.57;93716.28;6113348;23;20024;-86
2021/06/26 10:30:08;;;;;;;22.15;3.95;;;;;;;38.39;23.16;93703.66;6115941;23;20022;-87
2021/06/26 10:32:34;;;;;;;28.90;5.22;;;;;;;38.35;24.43;93716.88;6111918;23;20030;-86
2021/06/26 10:35:12;;;;;;;21.63;4.38;;;;;;;38.46;23.47;93714.38;6110322;23;20504;-88
2021/06/26 10:37:37;;;;;;;16.58;3.53;;;;;;;38.23;22.50;93701.28;6079967;23;20048;-84
2021/06/26 10:40:06;;;;;;;17.60;4.50;;;;;;;38.25;24.05;93693.31;6110250;23;20500;-83
2021/06/26 10:42:35;;;;;;;13.23;3.15;;;;;;;38.26;24.44;93689.31;6106803;23;20021;-85
2021/06/26 10:45:02;;;;;;;25.95;4.63;;;;;;;38.37;25.28;93708.88;6080564;23;20029;-88
2021/06/26 10:47:36;;;;;;;18.50;4.85;;;;;;;38.41;24.54;93707.50;6080449;23;20018;-88
2021/06/26 10:50:16;;;;;;;23.58;4.78;;;;;;;38.48;23.86;93711.91;6080794;23;20049;-81
2021/06/26 10:52:48;;;;;;;27.35;4.35;;;;;;;38.22;22.72;93703.28;6116229;23;20041;-78
2021/06/26 10:55:35;;;;;;;23.88;3.97;;;;;;;38.38;24.68;93702.88;6108313;23;20468;-80
2021/06/26 10:58:03;;;;;;;31.42;5.00;;;;;;;38.34;24.00;93693.25;6110639;23;20013;-78
2021/06/26 11:00:40;;;;;;;23.42;4.18;;;;;;;38.28;23.56;93693.13;6110523;23;20540;-78
2021/06/26 11:03:18;;;;;;;19.15;3.20;;;;;;;38.28;23.11;93692.34;6110189;23;20085;-79
2021/06/26 11:05:44;;;;;;;26.08;4.97;;;;;;;38.13;22.97;93690.28;6113147;23;20022;-79
2021/06/26 11:08:17;;;;;;;32.40;5.82;;;;;;;38.10;23.78;93693.22;6108471;23;20024;-78
2021/06/26 11:11:00;;;;;;;19.05;4.10;;;;;;;38.20;22.72;93685.66;6116126;23;20037;-78
2021/06/26 11:13:28;;;;;;;21.35;4.00;;;;;;;37.96;22.74;93678.09;6117021;23;20002;-78
2021/06/26 11:16:04;;;;;;;27.10;4.35;;;;;;;37.91;23.45;93673.22;6085035;23;20317;-78
2021/06/26 11:18:29;;;;;;;21.88;3.88;;;;;;;37.99;23.49;93663.41;6109218;23;20299;-78
2021/06/26 11:20:58;;;;;;;23.60;5.05;;;;;;;38.05;23.72;93664.28;6107522;23;20319;-79
2021/06/26 11:23:24;;;;;;;27.67;4.28;;;;;;;37.95;24.36;93662.78;6112499;23;20303;-79